PWSweather.com
Personal Weather Stations
Station Observations
MACKBIG
Historic Main Street, Unionville, ON L3R6A5

Historic Main StreetUnionville, ON L3R6A5

Lat: 43.875506, Lon: -79.312903

Elevation: 590

Station Type: Davis VP2 + 6163

http://www.mackweather.com

Latest ConditionsUpdated 7:40:08 PM EDT Tuesday, Sep 2, 2014
Currently Today's Max Today's Min Today's Average
Temperature 67.7°F19.8°C 78.7°F25.9°C 65.7°F18.7°C 70.9°F21.6°C
Dew Point 65.6°F18.7°C 70.4°F21.3°C 62.5°F16.9°C 67.1°F19.5°C
Winds Calm Calm 13.0 mph NW20.9 kmh NW - 1.1 mph 1.8 kmh
Wind Gusts -- 20.0 mph32.2 kmh - -
Humidity 93% 93% 74% 88%
Pressure 29.78 in1008.5 mb 29.78 in1008.5 mb 29.70 in1005.8 mb -
Precipitation - 1.10 in27.9 mm - -
Hour Temp Dew Point Humidity Winds Wind Gusts Pressure Precip Precip Rate Daily Precip Total
07:40 PM 67.7°F19.8°C 65.6°F18.7°C 93% Calm Calm -- 29.78 in1008.5 mb 0.00 in0.0 mm 0.00 in/hr0.0 mm/hr 1.10 in27.9 mm
07:30 PM 67.7°F19.8°C 65.6°F18.7°C 93% Calm Calm -- 29.77 in1008.1 mb 0.02 in0.5 mm 0.12 in/hr3.0 mm/hr 1.10 in27.9 mm
07:20 PM 67.7°F19.8°C 65.6°F18.7°C 93% Calm Calm -- 29.77 in1008.1 mb 0.02 in0.5 mm 0.12 in/hr3.0 mm/hr 1.09 in27.7 mm
07:10 PM 67.7°F19.8°C 65.6°F18.7°C 93% Calm Calm 2.0 mph3.2 kmh 29.77 in1008.1 mb 0.00 in0.0 mm 0.00 in/hr0.0 mm/hr 1.07 in27.2 mm
07:00 PM 67.8°F19.9°C 65.7°F18.7°C 93% Calm Calm -- 29.76 in1007.8 mb 0.00 in0.0 mm 0.00 in/hr0.0 mm/hr 1.07 in27.2 mm
06:50 PM 67.7°F19.8°C 65.6°F18.7°C 93% Calm Calm -- 29.76 in1007.8 mb 0.00 in0.0 mm 0.00 in/hr0.0 mm/hr 1.07 in27.2 mm
06:40 PM 67.5°F19.7°C 65.4°F18.6°C 93% Calm Calm -- 29.76 in1007.8 mb 0.00 in0.0 mm 0.00 in/hr0.0 mm/hr 1.07 in27.2 mm
06:30 PM 67.3°F19.6°C 65.2°F18.4°C 93% Calm Calm -- 29.76 in1007.8 mb 0.00 in0.0 mm 0.00 in/hr0.0 mm/hr 1.07 in27.2 mm
06:20 PM 67.2°F19.6°C 65.1°F18.4°C 93% Calm Calm -- 29.76 in1007.8 mb 0.00 in0.0 mm 0.00 in/hr0.0 mm/hr 1.07 in27.2 mm
06:10 PM 67.3°F19.6°C 65.2°F18.4°C 93% Calm Calm -- 29.75 in1007.5 mb 0.00 in0.0 mm 0.00 in/hr0.0 mm/hr 1.07 in27.2 mm
06:00 PM 67.3°F19.6°C 65.2°F18.4°C 93% Calm Calm -- 29.76 in1007.8 mb 0.00 in0.0 mm 0.00 in/hr0.0 mm/hr 1.07 in27.2 mm
05:50 PM 67.4°F19.7°C 65.3°F18.5°C 93% Calm Calm -- 29.76 in1007.8 mb 0.00 in0.0 mm 0.00 in/hr0.0 mm/hr 1.07 in27.2 mm
05:40 PM 67.5°F19.7°C 65.4°F18.6°C 93% Calm Calm -- 29.76 in1007.8 mb 0.00 in0.0 mm 0.00 in/hr0.0 mm/hr 1.07 in27.2 mm
05:30 PM 67.5°F19.7°C 65.4°F18.6°C 93% Calm Calm 2.0 mph3.2 kmh 29.76 in1007.8 mb 0.00 in0.0 mm 0.00 in/hr0.0 mm/hr 1.07 in27.2 mm
05:20 PM 67.3°F19.6°C 65.2°F18.4°C 93% 2.0 mph SW3.2 kmh SW 8.0 mph12.9 kmh 29.76 in1007.8 mb 0.00 in0.0 mm 0.00 in/hr0.0 mm/hr 1.07 in27.2 mm
05:10 PM 67.0°F19.4°C 64.9°F18.3°C 93% Calm Calm 1.0 mph1.6 kmh 29.75 in1007.5 mb 0.00 in0.0 mm 0.00 in/hr0.0 mm/hr 1.07 in27.2 mm
05:00 PM 66.7°F19.3°C 64.6°F18.1°C 93% Calm Calm -- 29.74 in1007.1 mb 0.00 in0.0 mm 0.00 in/hr0.0 mm/hr 1.07 in27.2 mm
04:50 PM 66.5°F19.2°C 64.4°F18.0°C 93% Calm Calm -- 29.74 in1007.1 mb 0.00 in0.0 mm 0.00 in/hr0.0 mm/hr 1.07 in27.2 mm
04:40 PM 66.3°F19.1°C 63.9°F17.7°C 92% Calm Calm -- 29.74 in1007.1 mb 0.01 in0.3 mm 0.06 in/hr1.5 mm/hr 1.07 in27.2 mm
04:30 PM 66.3°F19.1°C 63.9°F17.7°C 92% Calm Calm -- 29.74 in1007.1 mb 0.00 in0.0 mm 0.00 in/hr0.0 mm/hr 1.06 in26.9 mm
04:20 PM 66.4°F19.1°C 64.0°F17.8°C 92% Calm Calm -- 29.74 in1007.1 mb 0.01 in0.3 mm 0.06 in/hr1.5 mm/hr 1.06 in26.9 mm
04:10 PM 66.3°F19.1°C 63.9°F17.7°C 92% Calm Calm -- 29.75 in1007.5 mb 0.01 in0.3 mm 0.06 in/hr1.5 mm/hr 1.06 in26.9 mm
04:00 PM 66.0°F18.9°C 63.6°F17.6°C 92% Calm Calm -- 29.75 in1007.5 mb 0.00 in0.0 mm 0.00 in/hr0.0 mm/hr 1.06 in26.9 mm
03:50 PM 65.7°F18.7°C 63.3°F17.4°C 92% Calm Calm -- 29.72 in1006.4 mb 0.01 in0.3 mm 0.06 in/hr1.5 mm/hr 1.06 in26.9 mm
03:40 PM 65.7°F18.7°C 63.0°F17.2°C 91% Calm Calm -- 29.75 in1007.5 mb 0.02 in0.5 mm 0.12 in/hr3.0 mm/hr 1.05 in26.7 mm
03:30 PM 65.8°F18.8°C 63.1°F17.3°C 91% Calm Calm -- 29.75 in1007.5 mb 0.02 in0.5 mm 0.12 in/hr3.0 mm/hr 1.04 in26.4 mm
03:20 PM 65.7°F18.7°C 63.0°F17.2°C 91% Calm Calm 3.0 mph4.8 kmh 29.74 in1007.1 mb 0.02 in0.5 mm 0.12 in/hr3.0 mm/hr 1.02 in25.9 mm
03:10 PM 65.7°F18.7°C 62.7°F17.1°C 90% 1.0 mph WNW1.6 kmh WNW 3.0 mph4.8 kmh 29.73 in1006.8 mb 0.02 in0.5 mm 0.12 in/hr3.0 mm/hr 1.01 in25.7 mm
03:00 PM 65.8°F18.8°C 62.8°F17.1°C 90% Calm Calm -- 29.75 in1007.5 mb 0.04 in1.0 mm 0.05 in/hr1.3 mm/hr 1.00 in25.4 mm
02:50 PM 65.8°F18.8°C 62.5°F16.9°C 89% Calm Calm 2.0 mph3.2 kmh 29.77 in1008.1 mb 0.09 in2.3 mm 0.54 in/hr13.7 mm/hr 0.96 in24.4 mm
02:40 PM 65.8°F18.8°C 62.5°F16.9°C 89% Calm Calm -- 29.76 in1007.8 mb 0.13 in3.3 mm 0.78 in/hr19.8 mm/hr 0.88 in22.4 mm
02:30 PM 66.2°F19.0°C 62.5°F16.9°C 88% 3.0 mph WNW4.8 kmh WNW 7.0 mph11.3 kmh 29.76 in1007.8 mb 0.20 in5.1 mm 1.20 in/hr30.5 mm/hr 0.76 in19.3 mm
02:20 PM 67.2°F19.6°C 63.2°F17.3°C 87% 5.0 mph WNW8.0 kmh WNW 7.0 mph11.3 kmh 29.76 in1007.8 mb 0.03 in0.8 mm 0.18 in/hr4.6 mm/hr 0.58 in14.7 mm
02:10 PM 70.4°F21.3°C 65.3°F18.5°C 84% 13.0 mph NW20.9 kmh NW 20.0 mph32.2 kmh 29.74 in1007.1 mb 0.08 in2.0 mm 0.48 in/hr12.2 mm/hr 0.55 in14.0 mm
02:00 PM 73.8°F23.2°C 69.7°F20.9°C 87% Calm Calm 6.0 mph9.7 kmh 29.73 in1006.8 mb 0.17 in4.3 mm 0.20 in/hr5.1 mm/hr 0.48 in12.2 mm
01:50 PM 74.2°F23.4°C 70.1°F21.2°C 87% Calm Calm -- 29.74 in1007.1 mb 0.13 in3.3 mm 0.78 in/hr19.8 mm/hr 0.33 in8.4 mm
01:40 PM 74.4°F23.6°C 69.9°F21.1°C 86% Calm Calm -- 29.73 in1006.8 mb 0.06 in1.5 mm 0.36 in/hr9.1 mm/hr 0.21 in5.3 mm
01:30 PM 74.7°F23.7°C 69.9°F21.1°C 85% Calm Calm -- 29.73 in1006.8 mb 0.01 in0.3 mm 0.06 in/hr1.5 mm/hr 0.14 in3.6 mm
01:20 PM 75.2°F24.0°C 70.0°F21.1°C 84% Calm Calm -- 29.73 in1006.8 mb 0.01 in0.3 mm 0.06 in/hr1.5 mm/hr 0.13 in3.3 mm
01:10 PM 75.6°F24.2°C 70.4°F21.3°C 84% Calm Calm -- 29.74 in1007.1 mb 0.09 in2.3 mm 0.54 in/hr13.7 mm/hr 0.13 in3.3 mm
01:00 PM 75.9°F24.4°C 70.4°F21.3°C 83% Calm Calm -- 29.74 in1007.1 mb 0.04 in1.0 mm 0.05 in/hr1.3 mm/hr 0.05 in1.3 mm
12:50 PM 76.2°F24.6°C 70.3°F21.3°C 82% Calm Calm -- 29.74 in1007.1 mb 0.00 in0.0 mm 0.00 in/hr0.0 mm/hr 0.01 in0.3 mm
12:40 PM 76.6°F24.8°C 70.0°F21.1°C 80% Calm Calm -- 29.75 in1007.5 mb 0.01 in0.3 mm 0.06 in/hr1.5 mm/hr 0.01 in0.3 mm
12:30 PM 77.0°F25.0°C 69.6°F20.9°C 78% Calm Calm 5.0 mph8.0 kmh 29.75 in1007.5 mb 0.00 in0.0 mm 0.00 in/hr0.0 mm/hr 0.00 in0.0 mm
12:20 PM 77.1°F25.1°C 69.3°F20.7°C 77% Calm Calm 2.0 mph3.2 kmh 29.75 in1007.5 mb 0.00 in0.0 mm 0.00 in/hr0.0 mm/hr 0.00 in0.0 mm
12:10 PM 77.1°F25.1°C 68.9°F20.5°C 76% Calm Calm 3.0 mph4.8 kmh 29.76 in1007.8 mb 0.00 in0.0 mm 0.00 in/hr0.0 mm/hr 0.00 in0.0 mm
12:00 PM 77.3°F25.2°C 68.8°F20.4°C 75% 3.0 mph WSW4.8 kmh WSW 10.0 mph16.1 kmh 29.76 in1007.8 mb 0.00 in0.0 mm 0.00 in/hr0.0 mm/hr 0.00 in0.0 mm
11:50 AM 77.6°F25.3°C 69.4°F20.8°C 76% 5.0 mph W8.0 kmh W 8.0 mph12.9 kmh 29.76 in1007.8 mb 0.00 in0.0 mm 0.00 in/hr0.0 mm/hr 0.00 in0.0 mm
11:40 AM 77.7°F25.4°C 69.5°F20.8°C 76% 3.0 mph WSW4.8 kmh WSW 3.0 mph4.8 kmh 29.77 in1008.1 mb 0.00 in0.0 mm 0.00 in/hr0.0 mm/hr 0.00 in0.0 mm
11:30 AM 78.0°F25.6°C 69.5°F20.8°C 75% Calm Calm -- 29.76 in1007.8 mb 0.00 in0.0 mm 0.00 in/hr0.0 mm/hr 0.00 in0.0 mm
11:20 AM 78.4°F25.8°C 69.8°F21.0°C 75% 1.0 mph W1.6 kmh W -- 29.76 in1007.8 mb 0.00 in0.0 mm 0.00 in/hr0.0 mm/hr 0.00 in0.0 mm
11:10 AM 78.7°F25.9°C 70.1°F21.2°C 75% 5.0 mph WSW8.0 kmh WSW 7.0 mph11.3 kmh 29.77 in1008.1 mb 0.00 in0.0 mm 0.00 in/hr0.0 mm/hr 0.00 in0.0 mm
11:00 AM 78.6°F25.9°C 70.0°F21.1°C 75% 2.0 mph WSW3.2 kmh WSW 7.0 mph11.3 kmh 29.78 in1008.5 mb 0.00 in0.0 mm 0.00 in/hr0.0 mm/hr 0.00 in0.0 mm
10:50 AM 78.5°F25.8°C 70.3°F21.3°C 76% Calm Calm 1.0 mph1.6 kmh 29.78 in1008.5 mb 0.00 in0.0 mm 0.00 in/hr0.0 mm/hr 0.00 in0.0 mm
10:40 AM 78.3°F25.7°C 69.4°F20.8°C 74% 5.0 mph SW8.0 kmh SW 6.0 mph9.7 kmh 29.77 in1008.1 mb 0.00 in0.0 mm 0.00 in/hr0.0 mm/hr 0.00 in0.0 mm
10:30 AM 78.7°F25.9°C 70.1°F21.2°C 75% 3.0 mph WSW4.8 kmh WSW 5.0 mph8.0 kmh 29.77 in1008.1 mb 0.00 in0.0 mm 0.00 in/hr0.0 mm/hr 0.00 in0.0 mm
10:20 AM 78.3°F25.7°C 70.2°F21.2°C 76% 5.0 mph WNW8.0 kmh WNW 12.0 mph19.3 kmh 29.77 in1008.1 mb 0.00 in0.0 mm 0.00 in/hr0.0 mm/hr 0.00 in0.0 mm
10:10 AM 77.5°F25.3°C 70.1°F21.2°C 78% Calm Calm -- 29.77 in1008.1 mb 0.00 in0.0 mm 0.00 in/hr0.0 mm/hr 0.00 in0.0 mm
10:00 AM 76.8°F24.9°C 69.8°F21.0°C 79% 5.0 mph W8.0 kmh W 5.0 mph8.0 kmh 29.77 in1008.1 mb 0.00 in0.0 mm 0.00 in/hr0.0 mm/hr 0.00 in0.0 mm
09:50 AM 76.0°F24.4°C 70.1°F21.2°C 82% 2.0 mph W3.2 kmh W 8.0 mph12.9 kmh 29.77 in1008.1 mb 0.00 in0.0 mm 0.00 in/hr0.0 mm/hr 0.00 in0.0 mm
09:40 AM 75.1°F23.9°C 69.9°F21.1°C 84% 3.0 mph W4.8 kmh W 6.0 mph9.7 kmh 29.77 in1008.1 mb 0.00 in0.0 mm 0.00 in/hr0.0 mm/hr 0.00 in0.0 mm
09:30 AM 74.1°F23.4°C 70.0°F21.1°C 87% Calm Calm -- 29.77 in1008.1 mb 0.00 in0.0 mm 0.00 in/hr0.0 mm/hr 0.00 in0.0 mm
09:20 AM 73.1°F22.8°C 69.7°F20.9°C 89% 5.0 mph SW8.0 kmh SW 10.0 mph16.1 kmh 29.77 in1008.1 mb 0.00 in0.0 mm 0.00 in/hr0.0 mm/hr 0.00 in0.0 mm
09:10 AM 72.4°F22.4°C 69.6°F20.9°C 91% 1.0 mph WSW1.6 kmh WSW -- 29.77 in1008.1 mb 0.00 in0.0 mm 0.00 in/hr0.0 mm/hr 0.00 in0.0 mm
09:00 AM 71.8°F22.1°C 69.3°F20.7°C 92% 2.0 mph WSW3.2 kmh WSW 3.0 mph4.8 kmh 29.77 in1008.1 mb 0.00 in0.0 mm 0.00 in/hr0.0 mm/hr 0.00 in0.0 mm
08:50 AM 71.7°F22.1°C 69.2°F20.7°C 92% Calm Calm -- 29.77 in1008.1 mb 0.00 in0.0 mm 0.00 in/hr0.0 mm/hr 0.00 in0.0 mm
08:40 AM 71.2°F21.8°C 69.1°F20.6°C 93% Calm Calm -- 29.77 in1008.1 mb 0.00 in0.0 mm 0.00 in/hr0.0 mm/hr 0.00 in0.0 mm
08:30 AM 70.7°F21.5°C 68.6°F20.3°C 93% Calm Calm -- 29.78 in1008.5 mb 0.00 in0.0 mm 0.00 in/hr0.0 mm/hr 0.00 in0.0 mm
08:20 AM 70.4°F21.3°C 68.3°F20.2°C 93% Calm Calm -- 29.78 in1008.5 mb 0.00 in0.0 mm 0.00 in/hr0.0 mm/hr 0.00 in0.0 mm
08:10 AM 69.9°F21.1°C 67.8°F19.9°C 93% Calm Calm -- 29.78 in1008.5 mb 0.00 in0.0 mm 0.00 in/hr0.0 mm/hr 0.00 in0.0 mm
08:00 AM 69.1°F20.6°C 67.0°F19.4°C 93% Calm Calm 1.0 mph1.6 kmh 29.78 in1008.5 mb 0.00 in0.0 mm 0.00 in/hr0.0 mm/hr 0.00 in0.0 mm
07:50 AM 68.1°F20.1°C 65.7°F18.7°C 92% Calm Calm -- 29.78 in1008.5 mb 0.00 in0.0 mm 0.00 in/hr0.0 mm/hr 0.00 in0.0 mm
07:40 AM 67.5°F19.7°C 64.8°F18.2°C 91% Calm Calm -- 29.78 in1008.5 mb 0.00 in0.0 mm 0.00 in/hr0.0 mm/hr 0.00 in0.0 mm
07:30 AM 67.4°F19.7°C 64.7°F18.2°C 91% Calm Calm -- 29.78 in1008.5 mb 0.00 in0.0 mm 0.00 in/hr0.0 mm/hr 0.00 in0.0 mm
07:20 AM 67.2°F19.6°C 64.5°F18.1°C 91% Calm Calm -- 29.78 in1008.5 mb 0.00 in0.0 mm 0.00 in/hr0.0 mm/hr 0.00 in0.0 mm
07:10 AM 67.1°F19.5°C 64.4°F18.0°C 91% Calm Calm -- 29.78 in1008.5 mb 0.00 in0.0 mm 0.00 in/hr0.0 mm/hr 0.00 in0.0 mm
07:00 AM 67.3°F19.6°C 64.6°F18.1°C 91% Calm Calm -- 29.77 in1008.1 mb 0.00 in0.0 mm 0.00 in/hr0.0 mm/hr 0.00 in0.0 mm
06:50 AM 67.5°F19.7°C 64.8°F18.2°C 91% Calm Calm -- 29.77 in1008.1 mb 0.00 in0.0 mm 0.00 in/hr0.0 mm/hr 0.00 in0.0 mm
06:40 AM 67.5°F19.7°C 64.5°F18.1°C 90% Calm Calm -- 29.77 in1008.1 mb 0.00 in0.0 mm 0.00 in/hr0.0 mm/hr 0.00 in0.0 mm
06:30 AM 67.7°F19.8°C 65.0°F18.3°C 91% Calm Calm -- 29.76 in1007.8 mb 0.00 in0.0 mm 0.00 in/hr0.0 mm/hr 0.00 in0.0 mm
06:20 AM 67.9°F19.9°C 64.9°F18.3°C 90% Calm Calm -- 29.76 in1007.8 mb 0.00 in0.0 mm 0.00 in/hr0.0 mm/hr 0.00 in0.0 mm
06:10 AM 68.2°F20.1°C 65.1°F18.4°C 90% Calm Calm -- 29.76 in1007.8 mb 0.00 in0.0 mm 0.00 in/hr0.0 mm/hr 0.00 in0.0 mm
06:00 AM 68.4°F20.2°C 65.7°F18.7°C 91% Calm Calm -- 29.77 in1008.1 mb 0.00 in0.0 mm 0.00 in/hr0.0 mm/hr 0.00 in0.0 mm
05:50 AM 68.6°F20.3°C 65.5°F18.6°C 90% Calm Calm -- 29.77 in1008.1 mb 0.00 in0.0 mm 0.00 in/hr0.0 mm/hr 0.00 in0.0 mm
05:40 AM 68.7°F20.4°C 65.6°F18.7°C 90% Calm Calm -- 29.75 in1007.5 mb 0.00 in0.0 mm 0.00 in/hr0.0 mm/hr 0.00 in0.0 mm
05:30 AM 68.9°F20.5°C 65.8°F18.8°C 90% Calm Calm -- 29.75 in1007.5 mb 0.00 in0.0 mm 0.00 in/hr0.0 mm/hr 0.00 in0.0 mm
05:20 AM 69.0°F20.6°C 65.9°F18.8°C 90% Calm Calm -- 29.75 in1007.5 mb 0.00 in0.0 mm 0.00 in/hr0.0 mm/hr 0.00 in0.0 mm
05:10 AM 69.1°F20.6°C 66.0°F18.9°C 90% Calm Calm -- 29.75 in1007.5 mb 0.00 in0.0 mm 0.00 in/hr0.0 mm/hr 0.00 in0.0 mm
05:00 AM 69.2°F20.7°C 66.1°F18.9°C 90% Calm Calm -- 29.74 in1007.1 mb 0.00 in0.0 mm 0.00 in/hr0.0 mm/hr 0.00 in0.0 mm
04:50 AM 69.3°F20.7°C 66.2°F19.0°C 90% Calm Calm 3.0 mph4.8 kmh 29.74 in1007.1 mb 0.00 in0.0 mm 0.00 in/hr0.0 mm/hr 0.00 in0.0 mm
04:40 AM 69.4°F20.8°C 66.3°F19.1°C 90% Calm Calm -- 29.74 in1007.1 mb 0.00 in0.0 mm 0.00 in/hr0.0 mm/hr 0.00 in0.0 mm
04:30 AM 69.5°F20.8°C 66.1°F18.9°C 89% Calm Calm -- 29.73 in1006.8 mb 0.00 in0.0 mm 0.00 in/hr0.0 mm/hr 0.00 in0.0 mm
04:20 AM 69.7°F20.9°C 66.3°F19.1°C 89% Calm Calm 3.0 mph4.8 kmh 29.73 in1006.8 mb 0.00 in0.0 mm 0.00 in/hr0.0 mm/hr 0.00 in0.0 mm
04:10 AM 69.8°F21.0°C 66.4°F19.1°C 89% Calm Calm 2.0 mph3.2 kmh 29.74 in1007.1 mb 0.00 in0.0 mm 0.00 in/hr0.0 mm/hr 0.00 in0.0 mm
04:00 AM 70.0°F21.1°C 66.6°F19.2°C 89% Calm Calm 2.0 mph3.2 kmh 29.73 in1006.8 mb 0.00 in0.0 mm 0.00 in/hr0.0 mm/hr 0.00 in0.0 mm
03:50 AM 70.2°F21.2°C 66.8°F19.3°C 89% 1.0 mph W1.6 kmh W 5.0 mph8.0 kmh 29.73 in1006.8 mb 0.00 in0.0 mm 0.00 in/hr0.0 mm/hr 0.00 in0.0 mm
03:40 AM 70.3°F21.3°C 66.9°F19.4°C 89% Calm Calm -- 29.73 in1006.8 mb 0.00 in0.0 mm 0.00 in/hr0.0 mm/hr 0.00 in0.0 mm
03:30 AM 70.6°F21.4°C 67.2°F19.6°C 89% 3.0 mph WSW4.8 kmh WSW 6.0 mph9.7 kmh 29.73 in1006.8 mb 0.00 in0.0 mm 0.00 in/hr0.0 mm/hr 0.00 in0.0 mm
03:20 AM 70.8°F21.6°C 67.4°F19.7°C 89% Calm Calm -- 29.73 in1006.8 mb 0.00 in0.0 mm 0.00 in/hr0.0 mm/hr 0.00 in0.0 mm
03:10 AM 71.0°F21.7°C 67.6°F19.8°C 89% Calm Calm -- 29.73 in1006.8 mb 0.00 in0.0 mm 0.00 in/hr0.0 mm/hr 0.00 in0.0 mm
03:00 AM 71.2°F21.8°C 67.5°F19.7°C 88% Calm Calm 3.0 mph4.8 kmh 29.73 in1006.8 mb 0.00 in0.0 mm 0.00 in/hr0.0 mm/hr 0.00 in0.0 mm
02:50 AM 71.4°F21.9°C 67.7°F19.8°C 88% 1.0 mph W1.6 kmh W 7.0 mph11.3 kmh 29.73 in1006.8 mb 0.00 in0.0 mm 0.00 in/hr0.0 mm/hr 0.00 in0.0 mm
02:40 AM 71.6°F22.0°C 67.9°F19.9°C 88% 1.0 mph W1.6 kmh W 1.0 mph1.6 kmh 29.72 in1006.4 mb 0.00 in0.0 mm 0.00 in/hr0.0 mm/hr 0.00 in0.0 mm
02:30 AM 71.8°F22.1°C 68.1°F20.1°C 88% 1.0 mph W1.6 kmh W -- 29.72 in1006.4 mb 0.00 in0.0 mm 0.00 in/hr0.0 mm/hr 0.00 in0.0 mm
02:20 AM 72.1°F22.3°C 68.3°F20.2°C 88% 2.0 mph W3.2 kmh W 12.0 mph19.3 kmh 29.72 in1006.4 mb 0.00 in0.0 mm 0.00 in/hr0.0 mm/hr 0.00 in0.0 mm
02:10 AM 72.3°F22.4°C 68.5°F20.3°C 88% 2.0 mph W3.2 kmh W 3.0 mph4.8 kmh 29.72 in1006.4 mb 0.00 in0.0 mm 0.00 in/hr0.0 mm/hr 0.00 in0.0 mm
02:00 AM 72.5°F22.5°C 68.7°F20.4°C 88% 2.0 mph SW3.2 kmh SW 6.0 mph9.7 kmh 29.72 in1006.4 mb 0.00 in0.0 mm 0.00 in/hr0.0 mm/hr 0.00 in0.0 mm
01:50 AM 72.7°F22.6°C 68.9°F20.5°C 88% 3.0 mph WSW4.8 kmh WSW 7.0 mph11.3 kmh 29.72 in1006.4 mb 0.00 in0.0 mm 0.00 in/hr0.0 mm/hr 0.00 in0.0 mm
01:40 AM 72.9°F22.7°C 69.1°F20.6°C 88% 3.0 mph WSW4.8 kmh WSW 5.0 mph8.0 kmh 29.72 in1006.4 mb 0.00 in0.0 mm 0.00 in/hr0.0 mm/hr 0.00 in0.0 mm
01:30 AM 73.1°F22.8°C 69.3°F20.7°C 88% 3.0 mph SW4.8 kmh SW 7.0 mph11.3 kmh 29.71 in1006.1 mb 0.00 in0.0 mm 0.00 in/hr0.0 mm/hr 0.00 in0.0 mm
01:20 AM 73.3°F22.9°C 69.5°F20.8°C 88% 3.0 mph W4.8 kmh W 6.0 mph9.7 kmh 29.71 in1006.1 mb 0.00 in0.0 mm 0.00 in/hr0.0 mm/hr 0.00 in0.0 mm
01:10 AM 73.5°F23.1°C 69.7°F20.9°C 88% 9.0 mph WSW14.5 kmh WSW 17.0 mph27.4 kmh 29.71 in1006.1 mb 0.00 in0.0 mm 0.00 in/hr0.0 mm/hr 0.00 in0.0 mm
01:00 AM 73.6°F23.1°C 69.8°F21.0°C 88% 3.0 mph SW4.8 kmh SW 6.0 mph9.7 kmh 29.71 in1006.1 mb 0.00 in0.0 mm 0.00 in/hr0.0 mm/hr 0.00 in0.0 mm
12:50 AM 73.7°F23.2°C 69.9°F21.1°C 88% 6.0 mph SW9.7 kmh SW 9.0 mph14.5 kmh 29.71 in1006.1 mb 0.00 in0.0 mm 0.00 in/hr0.0 mm/hr 0.00 in0.0 mm
12:40 AM 73.8°F23.2°C 70.0°F21.1°C 88% 3.0 mph SSW4.8 kmh SSW 6.0 mph9.7 kmh 29.70 in1005.8 mb 0.00 in0.0 mm 0.00 in/hr0.0 mm/hr 0.00 in0.0 mm
12:30 AM 73.9°F23.3°C 70.1°F21.2°C 88% 3.0 mph SW4.8 kmh SW 10.0 mph16.1 kmh 29.71 in1006.1 mb 0.00 in0.0 mm 0.00 in/hr0.0 mm/hr 0.00 in0.0 mm
12:20 AM 73.8°F23.2°C 70.1°F21.2°C 88% 5.0 mph SSW8.0 kmh SSW 9.0 mph14.5 kmh 29.71 in1006.1 mb 0.00 in0.0 mm 0.00 in/hr0.0 mm/hr 0.00 in0.0 mm
12:10 AM 73.8°F23.2°C 70.0°F21.1°C 88% 5.0 mph S8.0 kmh S 8.0 mph12.9 kmh 29.71 in1006.1 mb 0.00 in0.0 mm 0.00 in/hr0.0 mm/hr 0.00 in0.0 mm
12:00 AM 73.8°F23.2°C 70.0°F21.1°C 88% 3.0 mph SW4.8 kmh SW 9.0 mph14.5 kmh 29.71 in1006.1 mb 0.00 in0.0 mm 0.00 in/hr0.0 mm/hr 0.00 in0.0 mm